createdAt,value
2017-10-01T00:00:29.013Z,971.63
2017-10-01T00:01:28.908Z,971.63
2017-10-01T00:02:28.903Z,971.69
2017-10-01T00:03:28.897Z,971.68
2017-10-01T00:04:28.894Z,971.67
2017-10-01T00:05:28.889Z,971.65
2017-10-01T00:06:28.883Z,971.67
2017-10-01T00:07:28.878Z,971.66
2017-10-01T00:08:28.874Z,971.71
2017-10-01T00:09:28.869Z,971.64
2017-10-01T00:10:28.862Z,971.67
2017-10-01T00:11:28.858Z,971.61
2017-10-01T00:12:28.955Z,971.61
2017-10-01T00:13:28.848Z,971.6
2017-10-01T00:14:28.945Z,971.62
2017-10-01T00:15:28.839Z,971.58
2017-10-01T00:16:28.835Z,971.61
2017-10-01T00:17:28.829Z,971.64
2017-10-01T00:18:28.924Z,971.6
2017-10-01T00:19:28.819Z,971.63
2017-10-01T00:20:28.814Z,971.63
2017-10-01T00:21:28.809Z,971.6
2017-10-01T00:22:28.805Z,971.62
2017-10-01T00:23:28.800Z,971.67
2017-10-01T00:24:28.794Z,971.68
2017-10-01T00:25:28.789Z,971.66
2017-10-01T00:26:28.784Z,971.69
2017-10-01T00:27:28.779Z,971.69
2017-10-01T00:28:28.774Z,971.65
2017-10-01T00:29:28.770Z,971.66
2017-10-01T00:30:28.914Z,971.66
2017-10-01T00:31:28.759Z,971.64
2017-10-01T00:32:28.756Z,971.63
2017-10-01T00:33:28.749Z,971.63
2017-10-01T00:34:28.746Z,971.6
2017-10-01T00:35:28.739Z,971.63
2017-10-01T00:36:28.733Z,971.65
2017-10-01T00:37:28.730Z,971.66
2017-10-01T00:38:28.727Z,971.65
2017-10-01T00:39:28.819Z,971.68
2017-10-01T00:40:28.714Z,971.66
2017-10-01T00:41:28.710Z,971.66
2017-10-01T00:42:28.705Z,971.7
2017-10-01T00:43:28.701Z,971.69
2017-10-01T00:44:28.695Z,971.67
2017-10-01T00:45:28.689Z,971.68
2017-10-01T00:46:28.686Z,971.71
2017-10-01T00:47:28.780Z,971.71
2017-10-01T00:48:28.675Z,971.66
2017-10-01T00:49:28.671Z,971.68
2017-10-01T00:50:28.664Z,971.68
2017-10-01T00:51:28.661Z,971.7
2017-10-01T00:52:28.656Z,971.71
2017-10-01T00:53:28.650Z,971.72
2017-10-01T00:54:28.646Z,971.73
2017-10-01T00:55:28.662Z,971.71
2017-10-01T00:56:28.635Z,971.69
2017-10-01T00:57:28.631Z,971.74
2017-10-01T00:58:28.631Z,971.71
2017-10-01T00:59:28.621Z,971.77
2017-10-01T01:00:28.616Z,971.72
2017-10-01T01:01:28.611Z,971.74
2017-10-01T01:02:28.604Z,971.78
2017-10-01T01:03:28.701Z,971.78
2017-10-01T01:04:28.595Z,971.82
2017-10-01T01:05:28.592Z,971.76
2017-10-01T01:06:28.585Z,971.8
2017-10-01T01:07:28.582Z,971.79
2017-10-01T01:08:28.575Z,971.77
2017-10-01T01:09:28.571Z,971.81
2017-10-01T01:10:28.566Z,971.82
2017-10-01T01:11:28.561Z,971.8
2017-10-01T01:12:28.556Z,971.8
2017-10-01T01:13:28.551Z,971.83
2017-10-01T01:14:28.546Z,971.81
2017-10-01T01:15:28.539Z,971.82
2017-10-01T01:16:28.535Z,971.82
2017-10-01T01:17:28.530Z,971.76
2017-10-01T01:18:28.526Z,971.81
2017-10-01T01:19:28.520Z,971.75
2017-10-01T01:20:28.516Z,971.77
2017-10-01T01:21:28.512Z,971.76
2017-10-01T01:22:28.605Z,971.75
2017-10-01T01:23:28.501Z,971.77
2017-10-01T01:24:28.496Z,971.75
2017-10-01T01:25:28.492Z,971.79
2017-10-01T01:26:28.486Z,971.79
2017-10-01T01:27:28.481Z,971.82
2017-10-01T01:28:28.476Z,971.83
2017-10-01T01:29:28.473Z,971.83
2017-10-01T01:30:28.464Z,971.81
2017-10-01T01:31:28.459Z,971.82
2017-10-01T01:32:28.454Z,971.8
2017-10-01T01:33:28.551Z,971.81
2017-10-01T01:34:28.445Z,971.79
2017-10-01T01:35:28.440Z,971.81
2017-10-01T01:36:28.536Z,971.81
2017-10-01T01:37:28.430Z,971.81
2017-10-01T01:38:28.425Z,971.77
2017-10-01T01:39:28.419Z,971.79
2017-10-01T01:40:28.416Z,971.79
2017-10-01T01:41:28.409Z,971.75
2017-10-01T01:42:28.409Z,971.77
2017-10-01T01:43:28.400Z,971.77
2017-10-01T01:44:28.394Z,971.75
2017-10-01T01:45:28.390Z,971.74
2017-10-01T01:46:28.385Z,971.74
2017-10-01T01:47:28.381Z,971.74
2017-10-01T01:48:28.374Z,971.71
2017-10-01T01:49:28.369Z,971.72
2017-10-01T01:50:28.364Z,971.74
2017-10-01T01:51:28.361Z,971.67
2017-10-01T01:52:28.353Z,971.69
2017-10-01T01:53:28.349Z,971.71
2017-10-01T01:54:28.345Z,971.7
2017-10-01T01:55:28.339Z,971.74
2017-10-01T01:56:28.334Z,971.71
2017-10-01T01:57:28.329Z,971.72
2017-10-01T01:58:28.324Z,971.7
2017-10-01T01:59:28.318Z,971.74
2017-10-01T02:00:28.312Z,971.75
2017-10-01T02:01:28.409Z,971.71
2017-10-01T02:02:28.304Z,971.75
2017-10-01T02:03:28.298Z,971.75
2017-10-01T02:04:28.293Z,971.73
2017-10-01T02:05:28.289Z,971.74
2017-10-01T02:06:28.284Z,971.73
2017-10-01T02:07:28.278Z,971.74
2017-10-01T02:08:28.274Z,971.74
2017-10-01T02:09:28.269Z,971.76
2017-10-01T02:10:28.263Z,971.75
2017-10-01T02:11:28.257Z,971.73
2017-10-01T02:12:28.252Z,971.73
2017-10-01T02:13:28.347Z,971.77
2017-10-01T02:14:28.241Z,971.78
2017-10-01T02:15:28.236Z,971.77
2017-10-01T02:16:28.333Z,971.81
2017-10-01T02:17:28.328Z,971.81
2017-10-01T02:18:28.224Z,971.81
2017-10-01T02:19:28.218Z,971.8
2017-10-01T02:20:28.214Z,971.81
2017-10-01T02:21:28.207Z,971.8
2017-10-01T02:22:28.326Z,971.79
2017-10-01T02:23:28.197Z,971.74
2017-10-01T02:24:28.192Z,971.75
2017-10-01T02:25:28.188Z,971.74
2017-10-01T02:26:28.183Z,971.77
2017-10-01T02:27:28.177Z,971.71
2017-10-01T02:28:28.171Z,971.72
2017-10-01T02:29:28.167Z,971.75
2017-10-01T02:30:28.163Z,971.75
2017-10-01T02:31:28.158Z,971.78
2017-10-01T02:32:28.151Z,971.76
2017-10-01T02:33:28.298Z,971.74
2017-10-01T02:34:28.142Z,971.76
2017-10-01T02:35:28.139Z,971.75
2017-10-01T02:36:28.130Z,971.77
2017-10-01T02:37:28.127Z,971.76
2017-10-01T02:38:28.221Z,971.74
2017-10-01T02:39:28.115Z,971.76
2017-10-01T02:40:28.110Z,971.73
2017-10-01T02:41:28.105Z,971.76
2017-10-01T02:42:28.101Z,971.77
2017-10-01T02:43:28.094Z,971.78
2017-10-01T02:44:28.092Z,971.77
2017-10-01T02:45:28.087Z,971.75
2017-10-01T02:46:28.081Z,971.75
2017-10-01T02:47:28.074Z,971.76
2017-10-01T02:48:28.070Z,971.76
2017-10-01T02:49:28.076Z,971.74
2017-10-01T02:50:28.059Z,971.77
2017-10-01T02:51:28.054Z,971.78
2017-10-01T02:52:28.050Z,971.77
2017-10-01T02:53:28.044Z,971.8
2017-10-01T02:54:28.037Z,971.78
2017-10-01T02:55:28.034Z,971.81
2017-10-01T02:56:28.030Z,971.86
2017-10-01T02:57:28.025Z,971.85
2017-10-01T02:58:28.020Z,971.89
2017-10-01T02:59:28.014Z,971.87
2017-10-01T03:00:28.009Z,971.88
2017-10-01T03:01:28.004Z,971.87
2017-10-01T03:02:27.997Z,971.91
2017-10-01T03:03:27.993Z,971.93
2017-10-01T03:04:27.989Z,971.89
2017-10-01T03:05:27.982Z,971.92
2017-10-01T03:06:27.978Z,971.9
2017-10-01T03:07:27.973Z,971.9
2017-10-01T03:08:27.967Z,971.92
2017-10-01T03:09:27.962Z,971.89
2017-10-01T03:10:27.959Z,971.93
2017-10-01T03:11:27.953Z,971.93
2017-10-01T03:12:27.945Z,971.98
2017-10-01T03:13:28.042Z,971.92
2017-10-01T03:14:27.937Z,971.93
2017-10-01T03:15:27.932Z,971.93
2017-10-01T03:16:27.926Z,971.95
2017-10-01T03:17:27.921Z,971.94
2017-10-01T03:18:27.916Z,971.97
2017-10-01T03:19:27.911Z,971.99
2017-10-01T03:20:27.905Z,972.03
2017-10-01T03:21:27.899Z,971.99
2017-10-01T03:22:27.896Z,972.01
2017-10-01T03:23:27.891Z,972.02
2017-10-01T03:24:27.885Z,972.03
2017-10-01T03:25:27.879Z,972
2017-10-01T03:26:27.875Z,972
2017-10-01T03:27:27.868Z,972.05
2017-10-01T03:28:27.865Z,972.04
2017-10-01T03:29:27.879Z,972.01
2017-10-01T03:30:27.855Z,972.01
2017-10-01T03:31:27.848Z,972.01
2017-10-01T03:32:27.844Z,972
2017-10-01T03:33:27.838Z,972.01
2017-10-01T03:34:27.832Z,971.99
2017-10-01T03:35:27.827Z,971.98
2017-10-01T03:36:27.822Z,971.99
2017-10-01T03:37:27.917Z,972.01
2017-10-01T03:38:27.812Z,972.02
2017-10-01T03:39:27.807Z,972.02
2017-10-01T03:40:27.902Z,972.01
2017-10-01T03:41:27.898Z,972.03
2017-10-01T03:42:27.791Z,972.03
2017-10-01T03:43:27.787Z,971.99
2017-10-01T03:44:27.782Z,972.03
2017-10-01T03:45:27.776Z,972.06
2017-10-01T03:46:27.770Z,972.08
2017-10-01T03:47:27.766Z,972.07
2017-10-01T03:48:27.762Z,972.08
2017-10-01T03:49:27.856Z,972.1
2017-10-01T03:50:27.750Z,972.1
2017-10-01T03:51:27.747Z,972.1
2017-10-01T03:52:27.741Z,972.11
2017-10-01T03:53:27.735Z,972.1
2017-10-01T03:54:27.830Z,972.09
2017-10-01T03:55:27.725Z,972.1
2017-10-01T03:56:27.821Z,972.12
2017-10-01T03:57:27.716Z,972.09
2017-10-01T03:58:27.711Z,972.15
2017-10-01T03:59:27.706Z,972.14
2017-10-01T04:00:27.700Z,972.13
2017-10-01T04:01:27.793Z,972.17
2017-10-01T04:02:27.689Z,972.14
2017-10-01T04:03:27.684Z,972.15
2017-10-01T04:04:27.678Z,972.16
2017-10-01T04:05:27.673Z,972.22
2017-10-01T04:06:27.669Z,972.18
2017-10-01T04:07:27.664Z,972.15
2017-10-01T04:08:27.658Z,972.13
2017-10-01T04:09:27.752Z,972.16
2017-10-01T04:10:27.649Z,972.13
2017-10-01T04:11:27.644Z,972.13
2017-10-01T04:12:27.738Z,972.17
2017-10-01T04:13:27.633Z,972.15
2017-10-01T04:14:27.776Z,972.14
2017-10-01T04:15:27.621Z,972.15
2017-10-01T04:16:27.617Z,972.15
2017-10-01T04:17:27.612Z,972.17
2017-10-01T04:18:27.606Z,972.16
2017-10-01T04:19:27.600Z,972.2
2017-10-01T04:20:27.595Z,972.21
2017-10-01T04:21:27.591Z,972.19
2017-10-01T04:22:27.584Z,972.23
2017-10-01T04:23:27.581Z,972.24
2017-10-01T04:24:27.575Z,972.24
2017-10-01T04:25:27.671Z,972.24
2017-10-01T04:26:27.565Z,972.25
2017-10-01T04:27:27.560Z,972.24
2017-10-01T04:28:27.654Z,972.24
2017-10-01T04:29:27.548Z,972.26
2017-10-01T04:30:27.544Z,972.25
2017-10-01T04:31:27.539Z,972.29
2017-10-01T04:32:27.534Z,972.32
2017-10-01T04:33:27.528Z,972.32
2017-10-01T04:34:27.524Z,972.32
2017-10-01T04:35:27.518Z,972.34
2017-10-01T04:36:27.513Z,972.3
2017-10-01T04:37:27.507Z,972.35
2017-10-01T04:38:27.606Z,972.33
2017-10-01T04:39:27.496Z,972.33
2017-10-01T04:40:27.492Z,972.33
2017-10-01T04:41:27.487Z,972.39
2017-10-01T04:42:27.483Z,972.4
2017-10-01T04:43:27.477Z,972.38
2017-10-01T04:44:27.472Z,972.37
2017-10-01T04:45:27.466Z,972.38
2017-10-01T04:46:27.463Z,972.42
2017-10-01T04:47:27.455Z,972.45
2017-10-01T04:48:27.451Z,972.42
2017-10-01T04:49:27.444Z,972.43
2017-10-01T04:50:27.441Z,972.42
2017-10-01T04:51:27.433Z,972.46
2017-10-01T04:52:27.430Z,972.49
2017-10-01T04:53:27.424Z,972.46
2017-10-01T04:54:27.419Z,972.52
2017-10-01T04:55:27.414Z,972.51
2017-10-01T04:56:27.408Z,972.51
2017-10-01T04:57:27.405Z,972.48
2017-10-01T04:58:27.398Z,972.5
2017-10-01T04:59:27.393Z,972.53
2017-10-01T05:00:27.390Z,972.49
2017-10-01T05:01:27.484Z,972.52
2017-10-01T05:02:27.378Z,972.5
2017-10-01T05:03:27.373Z,972.55
2017-10-01T05:04:27.368Z,972.55
2017-10-01T05:05:27.363Z,972.57
2017-10-01T05:06:27.457Z,972.53
2017-10-01T05:07:27.351Z,972.57
2017-10-01T05:08:27.348Z,972.55
2017-10-01T05:09:27.340Z,972.51
2017-10-01T05:10:27.336Z,972.51
2017-10-01T05:11:27.334Z,972.48
2017-10-01T05:12:27.326Z,972.48
2017-10-01T05:13:27.320Z,972.52
2017-10-01T05:14:27.316Z,972.52
2017-10-01T05:15:27.311Z,972.51
2017-10-01T05:16:27.304Z,972.54
2017-10-01T05:17:27.299Z,972.53
2017-10-01T05:18:27.295Z,972.51
2017-10-01T05:19:27.290Z,972.52
2017-10-01T05:20:27.283Z,972.52
2017-10-01T05:21:27.279Z,972.57
2017-10-01T05:22:27.274Z,972.55
2017-10-01T05:23:27.268Z,972.56
2017-10-01T05:24:27.263Z,972.54
2017-10-01T05:25:27.258Z,972.52
2017-10-01T05:26:27.251Z,972.56
2017-10-01T05:27:27.247Z,972.52
2017-10-01T05:28:27.243Z,972.5
2017-10-01T05:29:27.238Z,972.51
2017-10-01T05:30:27.233Z,972.56
2017-10-01T05:31:27.327Z,972.53
2017-10-01T05:32:27.222Z,972.55
2017-10-01T05:33:27.218Z,972.55
2017-10-01T05:34:27.212Z,972.56
2017-10-01T05:35:27.207Z,972.55
2017-10-01T05:36:27.201Z,972.56
2017-10-01T05:37:27.196Z,972.56
2017-10-01T05:38:27.189Z,972.54
2017-10-01T05:39:27.186Z,972.54
2017-10-01T05:40:27.184Z,972.55
2017-10-01T05:41:27.176Z,972.54
2017-10-01T05:42:27.169Z,972.52
2017-10-01T05:43:27.164Z,972.57
2017-10-01T05:44:27.159Z,972.55
2017-10-01T05:45:27.177Z,972.55
2017-10-01T05:46:27.149Z,972.57
2017-10-01T05:47:27.144Z,972.55
2017-10-01T05:48:27.239Z,972.55
2017-10-01T05:49:27.133Z,972.53
2017-10-01T05:50:27.127Z,972.54
2017-10-01T05:51:27.122Z,972.58
2017-10-01T05:52:27.118Z,972.57
2017-10-01T05:53:27.112Z,972.56
2017-10-01T05:54:27.106Z,972.54
2017-10-01T05:55:27.102Z,972.58
2017-10-01T05:56:27.096Z,972.55
2017-10-01T05:57:27.092Z,972.53
2017-10-01T05:58:27.085Z,972.54
2017-10-01T05:59:27.181Z,972.57
2017-10-01T06:00:27.073Z,972.53
2017-10-01T06:01:27.069Z,972.61
2017-10-01T06:02:27.164Z,972.6
2017-10-01T06:03:27.060Z,972.6
2017-10-01T06:04:27.154Z,972.65
2017-10-01T06:05:27.048Z,972.67
2017-10-01T06:06:27.043Z,972.66
2017-10-01T06:07:27.038Z,972.65
2017-10-01T06:08:27.033Z,972.68
2017-10-01T06:09:27.028Z,972.67
2017-10-01T06:10:27.023Z,972.64
2017-10-01T06:11:27.016Z,972.66
2017-10-01T06:12:27.012Z,972.69
2017-10-01T06:13:27.005Z,972.65
2017-10-01T06:14:27.001Z,972.65
2017-10-01T06:15:26.996Z,972.68
2017-10-01T06:16:27.090Z,972.66
2017-10-01T06:17:26.985Z,972.67
2017-10-01T06:18:26.981Z,972.68
2017-10-01T06:19:26.977Z,972.68
2017-10-01T06:20:26.969Z,972.69
2017-10-01T06:21:26.966Z,972.65
2017-10-01T06:22:26.958Z,972.68
2017-10-01T06:23:26.954Z,972.63
2017-10-01T06:24:26.949Z,972.62
2017-10-01T06:25:26.945Z,972.59
2017-10-01T06:26:26.939Z,972.63
2017-10-01T06:27:26.933Z,972.66
2017-10-01T06:28:26.928Z,972.66
2017-10-01T06:29:27.023Z,972.66
2017-10-01T06:30:26.917Z,972.68
2017-10-01T06:31:27.012Z,972.66
2017-10-01T06:32:27.007Z,972.68
2017-10-01T06:33:26.901Z,972.68
2017-10-01T06:34:26.902Z,972.69
2017-10-01T06:35:26.892Z,972.72
2017-10-01T06:36:26.986Z,972.68
2017-10-01T06:37:26.881Z,972.71
2017-10-01T06:38:26.875Z,972.7
2017-10-01T06:39:26.871Z,972.74
2017-10-01T06:40:26.865Z,972.74
2017-10-01T06:41:26.860Z,972.72
2017-10-01T06:42:26.855Z,972.74
2017-10-01T06:43:26.849Z,972.77
2017-10-01T06:44:26.844Z,972.77
2017-10-01T06:45:26.839Z,972.81
2017-10-01T06:46:26.835Z,972.77
2017-10-01T06:47:26.829Z,972.83
2017-10-01T06:48:26.923Z,972.85
2017-10-01T06:49:26.821Z,972.84
2017-10-01T06:50:26.814Z,972.86
2017-10-01T06:51:26.808Z,972.86
2017-10-01T06:52:26.803Z,972.86
2017-10-01T06:53:26.796Z,972.88
2017-10-01T06:54:26.793Z,972.88
2017-10-01T06:55:26.886Z,972.87
2017-10-01T06:56:26.882Z,972.91
2017-10-01T06:57:26.777Z,972.9
2017-10-01T06:58:26.772Z,972.93
2017-10-01T06:59:26.765Z,972.94
2017-10-01T07:00:26.761Z,972.96
2017-10-01T07:01:26.757Z,972.96
2017-10-01T07:02:26.750Z,972.95
2017-10-01T07:03:26.845Z,972.95
2017-10-01T07:04:26.742Z,972.98
2017-10-01T07:05:26.735Z,973.01
2017-10-01T07:06:26.729Z,973.02
2017-10-01T07:07:26.825Z,973.01
2017-10-01T07:08:26.721Z,973.01
2017-10-01T07:09:26.715Z,973.02
2017-10-01T07:10:26.710Z,973
2017-10-01T07:11:26.705Z,973.02
2017-10-01T07:12:26.700Z,973
2017-10-01T07:13:26.694Z,972.98
2017-10-01T07:14:26.688Z,972.98
2017-10-01T07:15:26.685Z,972.98
2017-10-01T07:16:26.678Z,972.98
2017-10-01T07:17:26.672Z,973.02
2017-10-01T07:18:26.770Z,973.03
2017-10-01T07:19:26.666Z,973.03
2017-10-01T07:20:26.658Z,973.05
2017-10-01T07:21:26.653Z,973.05
2017-10-01T07:22:26.647Z,973.07
2017-10-01T07:23:26.743Z,973.05
2017-10-01T07:24:26.637Z,973.05
2017-10-01T07:25:26.633Z,973.05
2017-10-01T07:26:26.627Z,973.06
2017-10-01T07:27:26.622Z,973.06
2017-10-01T07:28:26.616Z,973.07
2017-10-01T07:29:26.611Z,973.12
2017-10-01T07:30:26.607Z,973.09
2017-10-01T07:31:26.602Z,973.12
2017-10-01T07:32:26.596Z,973.13
2017-10-01T07:33:26.590Z,973.13
2017-10-01T07:34:26.685Z,973.19
2017-10-01T07:35:26.579Z,973.19
2017-10-01T07:36:26.574Z,973.16
2017-10-01T07:37:26.569Z,973.21
2017-10-01T07:38:26.566Z,973.21
2017-10-01T07:39:26.559Z,973.21
2017-10-01T07:40:26.556Z,973.2
2017-10-01T07:41:26.551Z,973.22
2017-10-01T07:42:26.545Z,973.23
2017-10-01T07:43:26.538Z,973.21
2017-10-01T07:44:26.535Z,973.24
2017-10-01T07:45:26.529Z,973.22
2017-10-01T07:46:26.522Z,973.24
2017-10-01T07:47:26.518Z,973.27
2017-10-01T07:48:26.514Z,973.26
2017-10-01T07:49:26.508Z,973.28
2017-10-01T07:50:26.653Z,973.29
2017-10-01T07:51:26.499Z,973.28
2017-10-01T07:52:26.493Z,973.3
2017-10-01T07:53:26.488Z,973.29
2017-10-01T07:54:26.482Z,973.32
2017-10-01T07:55:26.627Z,973.28
2017-10-01T07:56:26.473Z,973.28
2017-10-01T07:57:26.466Z,973.3
2017-10-01T07:58:26.561Z,973.33
2017-10-01T07:59:26.457Z,973.34
2017-10-01T08:00:26.453Z,973.43
2017-10-01T08:01:26.447Z,973.37
2017-10-01T08:02:26.442Z,973.37
2017-10-01T08:03:26.436Z,973.37
2017-10-01T08:04:26.532Z,973.33
2017-10-01T08:05:26.433Z,973.32
2017-10-01T08:06:26.422Z,973.32
2017-10-01T08:07:26.516Z,973.29
2017-10-01T08:08:26.410Z,973.3
2017-10-01T08:09:26.405Z,973.32
2017-10-01T08:10:26.401Z,973.31
2017-10-01T08:11:26.396Z,973.34
2017-10-01T08:12:26.390Z,973.31
2017-10-01T08:13:26.384Z,973.36
2017-10-01T08:14:26.379Z,973.34
2017-10-01T08:15:26.376Z,973.38
2017-10-01T08:16:26.370Z,973.34
2017-10-01T08:17:26.365Z,973.37
2017-10-01T08:18:26.361Z,973.33
2017-10-01T08:19:26.454Z,973.38
2017-10-01T08:20:26.349Z,973.36
2017-10-01T08:21:26.445Z,973.34
2017-10-01T08:22:26.339Z,973.36
2017-10-01T08:23:26.334Z,973.39
2017-10-01T08:24:26.329Z,973.35
2017-10-01T08:25:26.324Z,973.37
2017-10-01T08:26:26.318Z,973.33
2017-10-01T08:27:26.314Z,973.36
2017-10-01T08:28:26.308Z,973.38
2017-10-01T08:29:26.304Z,973.38
2017-10-01T08:30:26.299Z,973.38
2017-10-01T08:31:26.294Z,973.38
2017-10-01T08:32:26.288Z,973.38
2017-10-01T08:33:26.283Z,973.38
2017-10-01T08:34:26.281Z,973.37
2017-10-01T08:35:26.274Z,973.35
2017-10-01T08:36:26.270Z,973.41
2017-10-01T08:37:26.264Z,973.39
2017-10-01T08:38:26.360Z,973.39
2017-10-01T08:39:26.254Z,973.41
2017-10-01T08:40:26.250Z,973.37
2017-10-01T08:41:26.244Z,973.39
2017-10-01T08:42:26.238Z,973.41
2017-10-01T08:43:26.235Z,973.38
2017-10-01T08:44:26.330Z,973.41
2017-10-01T08:45:26.224Z,973.42
2017-10-01T08:46:26.218Z,973.41
2017-10-01T08:47:26.214Z,973.44
2017-10-01T08:48:26.209Z,973.43
2017-10-01T08:49:26.203Z,973.41
2017-10-01T08:50:26.201Z,973.43
2017-10-01T08:51:26.194Z,973.44
2017-10-01T08:52:26.188Z,973.4
2017-10-01T08:53:26.333Z,973.36
2017-10-01T08:54:26.178Z,973.39
2017-10-01T08:55:26.173Z,973.4
2017-10-01T08:56:26.168Z,973.38
2017-10-01T08:57:26.264Z,973.41
2017-10-01T08:58:26.159Z,973.36
2017-10-01T08:59:26.153Z,973.37
2017-10-01T09:00:26.149Z,973.4
2017-10-01T09:01:26.244Z,973.39
2017-10-01T09:02:26.139Z,973.41
2017-10-01T09:03:26.136Z,973.4
2017-10-01T09:04:26.129Z,973.38
2017-10-01T09:05:26.123Z,973.43
2017-10-01T09:06:26.219Z,973.41
2017-10-01T09:07:26.114Z,973.41
2017-10-01T09:08:26.110Z,973.41
2017-10-01T09:09:26.105Z,973.4
2017-10-01T09:10:26.098Z,973.37
2017-10-01T09:11:26.093Z,973.35
2017-10-01T09:12:26.088Z,973.35
2017-10-01T09:13:26.084Z,973.34
2017-10-01T09:14:26.080Z,973.37
2017-10-01T09:15:26.073Z,973.36
2017-10-01T09:16:26.069Z,973.38
2017-10-01T09:17:26.066Z,973.4
2017-10-01T09:18:26.058Z,973.39
2017-10-01T09:19:26.054Z,973.4
2017-10-01T09:20:26.050Z,973.38
2017-10-01T09:21:26.043Z,973.34
2017-10-01T09:22:26.039Z,973.33
2017-10-01T09:23:26.034Z,973.34
2017-10-01T09:24:26.029Z,973.33
2017-10-01T09:25:26.025Z,973.28
2017-10-01T09:26:26.120Z,973.27
2017-10-01T09:27:26.015Z,973.22
2017-10-01T09:28:26.011Z,973.23
2017-10-01T09:29:26.004Z,973.26
2017-10-01T09:30:26.100Z,973.23
2017-10-01T09:31:25.996Z,973.22
2017-10-01T09:32:25.989Z,973.26
2017-10-01T09:33:25.986Z,973.22
2017-10-01T09:34:25.981Z,973.26
2017-10-01T09:35:25.975Z,973.22
2017-10-01T09:36:25.971Z,973.21
2017-10-01T09:37:25.965Z,973.21
2017-10-01T09:38:25.960Z,973.25
2017-10-01T09:39:25.956Z,973.23
2017-10-01T09:40:25.950Z,973.22
2017-10-01T09:41:25.946Z,973.18
2017-10-01T09:42:25.948Z,973.17
2017-10-01T09:43:25.936Z,973.16
2017-10-01T09:44:25.932Z,973.2
2017-10-01T09:45:25.925Z,973.17
2017-10-01T09:46:25.921Z,973.17
2017-10-01T09:47:25.915Z,973.13
2017-10-01T09:48:25.911Z,973.18
2017-10-01T09:49:25.905Z,973.17
2017-10-01T09:50:25.902Z,973.11
2017-10-01T09:51:25.897Z,973.1
2017-10-01T09:52:25.890Z,973.11
2017-10-01T09:53:25.888Z,973.08
2017-10-01T09:54:25.880Z,973.1
2017-10-01T09:55:25.876Z,973.11
2017-10-01T09:56:25.871Z,973.12
2017-10-01T09:57:25.868Z,973.14
2017-10-01T09:58:25.861Z,973.07
2017-10-01T09:59:25.956Z,973.11
2017-10-01T10:00:25.851Z,973.13
2017-10-01T10:01:25.847Z,973.15
2017-10-01T10:02:25.841Z,973.14
2017-10-01T10:03:25.837Z,973.1
2017-10-01T10:04:25.832Z,973.06
2017-10-01T10:05:25.826Z,973.06
2017-10-01T10:06:25.820Z,973.08
2017-10-01T10:07:25.816Z,973.07
2017-10-01T10:08:25.811Z,973.1
2017-10-01T10:09:25.807Z,973.08
2017-10-01T10:10:25.802Z,973.03
2017-10-01T10:11:25.798Z,973.09
2017-10-01T10:12:25.792Z,973
2017-10-01T10:13:25.788Z,973.02
2017-10-01T10:14:25.783Z,973.01
2017-10-01T10:15:25.778Z,973.03
2017-10-01T10:16:25.773Z,972.98
2017-10-01T10:17:25.869Z,973.03
2017-10-01T10:18:25.764Z,972.97
2017-10-01T10:19:25.758Z,972.95
2017-10-01T10:20:25.754Z,972.97
2017-10-01T10:21:25.747Z,972.99
2017-10-01T10:22:25.744Z,972.97
2017-10-01T10:23:25.739Z,972.97
2017-10-01T10:24:25.736Z,972.96
2017-10-01T10:25:25.730Z,972.94
2017-10-01T10:26:25.726Z,972.94
2017-10-01T10:27:25.720Z,972.98
2017-10-01T10:28:25.815Z,972.96
2017-10-01T10:29:25.810Z,972.96
2017-10-01T10:30:25.705Z,972.95
2017-10-01T10:31:25.700Z,972.95
2017-10-01T10:32:25.694Z,972.94
2017-10-01T10:33:25.691Z,972.92
2017-10-01T10:34:25.684Z,972.93
2017-10-01T10:35:25.681Z,972.89
2017-10-01T10:36:25.776Z,972.93
2017-10-01T10:37:25.672Z,972.91
2017-10-01T10:38:25.666Z,972.89
2017-10-01T10:39:25.661Z,972.93
2017-10-01T10:40:25.656Z,972.91
2017-10-01T10:41:25.651Z,972.9
2017-10-01T10:42:25.646Z,972.88
2017-10-01T10:43:25.641Z,972.89
2017-10-01T10:44:25.737Z,972.91
2017-10-01T10:45:25.632Z,972.89
2017-10-01T10:46:25.626Z,972.88
2017-10-01T10:47:25.624Z,972.87
2017-10-01T10:48:25.617Z,972.87
2017-10-01T10:49:25.613Z,972.85
2017-10-01T10:50:25.610Z,972.88
2017-10-01T10:51:25.606Z,972.86
2017-10-01T10:52:25.600Z,972.9
2017-10-01T10:53:25.595Z,972.83
2017-10-01T10:54:25.591Z,972.86
2017-10-01T10:55:25.585Z,972.82
2017-10-01T10:56:25.579Z,972.87
2017-10-01T10:57:25.576Z,972.86
2017-10-01T10:58:25.571Z,972.9
2017-10-01T10:59:25.567Z,972.87
2017-10-01T11:00:25.560Z,972.9
2017-10-01T11:01:25.556Z,972.86
2017-10-01T11:02:25.552Z,972.88
2017-10-01T11:03:25.548Z,972.86
2017-10-01T11:04:25.542Z,972.85
2017-10-01T11:05:25.537Z,972.79
2017-10-01T11:06:25.533Z,972.84
2017-10-01T11:07:25.528Z,972.83
2017-10-01T11:08:25.523Z,972.78
2017-10-01T11:09:25.519Z,972.78
2017-10-01T11:10:25.514Z,972.77
2017-10-01T11:11:25.510Z,972.77
2017-10-01T11:12:25.506Z,972.79
2017-10-01T11:13:25.500Z,972.81
2017-10-01T11:14:25.497Z,972.81
2017-10-01T11:15:25.491Z,972.79
2017-10-01T11:16:25.487Z,972.8
2017-10-01T11:17:25.482Z,972.79
2017-10-01T11:18:25.476Z,972.73
2017-10-01T11:19:25.473Z,972.71
2017-10-01T11:20:25.468Z,972.72
2017-10-01T11:21:25.464Z,972.71
2017-10-01T11:22:25.458Z,972.71
2017-10-01T11:23:25.454Z,972.71
2017-10-01T11:24:25.448Z,972.66
2017-10-01T11:25:25.445Z,972.67
2017-10-01T11:26:25.539Z,972.67
2017-10-01T11:27:25.435Z,972.65
2017-10-01T11:28:25.431Z,972.61
2017-10-01T11:29:25.425Z,972.58
2017-10-01T11:30:25.422Z,972.58
2017-10-01T11:31:25.417Z,972.57
2017-10-01T11:32:25.413Z,972.54
2017-10-01T11:33:25.408Z,972.55
2017-10-01T11:34:25.402Z,972.51
2017-10-01T11:35:25.399Z,972.46
2017-10-01T11:36:25.394Z,972.46
2017-10-01T11:37:25.388Z,972.43
2017-10-01T11:38:25.384Z,972.39
2017-10-01T11:39:25.380Z,972.39
2017-10-01T11:40:25.401Z,972.34
2017-10-01T11:41:25.371Z,972.34
2017-10-01T11:42:25.385Z,972.35
2017-10-01T11:43:25.361Z,972.36
2017-10-01T11:44:25.356Z,972.33
2017-10-01T11:45:25.351Z,972.36
2017-10-01T11:46:25.347Z,972.29
2017-10-01T11:47:25.442Z,972.33
2017-10-01T11:48:25.340Z,972.3
2017-10-01T11:49:25.335Z,972.3
2017-10-01T11:50:25.331Z,972.29
2017-10-01T11:51:25.426Z,972.3
2017-10-01T11:52:25.444Z,972.24
2017-10-01T11:53:25.316Z,972.24
2017-10-01T11:54:25.314Z,972.27
2017-10-01T11:55:25.307Z,972.25
2017-10-01T11:56:25.402Z,972.24
2017-10-01T11:57:25.297Z,972.26
2017-10-01T11:58:25.291Z,972.23
2017-10-01T11:59:25.288Z,972.22
2017-10-01T12:00:25.283Z,972.19
2017-10-01T12:01:25.279Z,972.14
2017-10-01T12:02:25.273Z,972.13
2017-10-01T12:03:25.269Z,972.14
2017-10-01T12:04:25.365Z,972.13
2017-10-01T12:05:25.260Z,972.09
2017-10-01T12:06:25.255Z,972.1
2017-10-01T12:07:25.252Z,972.11
2017-10-01T12:08:25.251Z,972.11
2017-10-01T12:09:25.242Z,972.1
2017-10-01T12:10:25.236Z,972.11
2017-10-01T12:11:25.233Z,972.15
2017-10-01T12:12:25.330Z,972.1
2017-10-01T12:13:25.225Z,972.08
2017-10-01T12:14:25.220Z,972.04
2017-10-01T12:15:25.216Z,972.07
2017-10-01T12:16:25.210Z,972.03
2017-10-01T12:17:25.205Z,972.04
2017-10-01T12:18:25.202Z,972.05
2017-10-01T12:19:25.197Z,972.06
2017-10-01T12:20:25.194Z,972.09
2017-10-01T12:21:25.188Z,972.02
2017-10-01T12:22:25.183Z,972.01
2017-10-01T12:23:25.179Z,971.99
2017-10-01T12:24:25.173Z,972
2017-10-01T12:25:25.170Z,972.03
2017-10-01T12:26:25.165Z,972.04
2017-10-01T12:27:25.162Z,972.08
2017-10-01T12:28:25.156Z,972.06
2017-10-01T12:29:25.152Z,972.07
2017-10-01T12:30:25.150Z,972.07
2017-10-01T12:31:25.142Z,972.07